sensor_id;sensor_type;location;lat;lon;timestamp;P1;durP1;ratioP1;P2;durP2;ratioP2
5391;SDS011;2719;53.624;9.786;2023-10-31T00:00:03;9.30;;;2.80;;
5391;SDS011;2719;53.624;9.786;2023-10-31T00:02:31;6.27;;;3.27;;
5391;SDS011;2719;53.624;9.786;2023-10-31T00:04:58;7.23;;;2.50;;
5391;SDS011;2719;53.624;9.786;2023-10-31T00:07:25;4.67;;;2.10;;
5391;SDS011;2719;53.624;9.786;2023-10-31T00:09:52;4.67;;;2.80;;
5391;SDS011;2719;53.624;9.786;2023-10-31T00:12:19;6.50;;;3.10;;
5391;SDS011;2719;53.624;9.786;2023-10-31T00:14:45;7.97;;;3.70;;
5391;SDS011;2719;53.624;9.786;2023-10-31T00:17:12;6.13;;;4.00;;
5391;SDS011;2719;53.624;9.786;2023-10-31T00:19:39;4.50;;;2.50;;
5391;SDS011;2719;53.624;9.786;2023-10-31T00:22:05;5.30;;;2.80;;
5391;SDS011;2719;53.624;9.786;2023-10-31T00:24:33;14.83;;;3.10;;
5391;SDS011;2719;53.624;9.786;2023-10-31T00:27:00;5.03;;;3.10;;
5391;SDS011;2719;53.624;9.786;2023-10-31T00:29:26;5.10;;;3.00;;
5391;SDS011;2719;53.624;9.786;2023-10-31T00:31:53;8.80;;;2.73;;
5391;SDS011;2719;53.624;9.786;2023-10-31T00:34:20;6.93;;;3.87;;
5391;SDS011;2719;53.624;9.786;2023-10-31T00:36:46;4.13;;;2.73;;
5391;SDS011;2719;53.624;9.786;2023-10-31T00:39:13;6.13;;;3.60;;
5391;SDS011;2719;53.624;9.786;2023-10-31T00:41:43;4.97;;;3.07;;
5391;SDS011;2719;53.624;9.786;2023-10-31T00:44:10;8.43;;;3.50;;
5391;SDS011;2719;53.624;9.786;2023-10-31T00:46:37;5.43;;;3.40;;
5391;SDS011;2719;53.624;9.786;2023-10-31T00:49:03;5.70;;;3.40;;
5391;SDS011;2719;53.624;9.786;2023-10-31T00:51:30;10.70;;;4.40;;
5391;SDS011;2719;53.624;9.786;2023-10-31T00:53:57;7.23;;;3.43;;
5391;SDS011;2719;53.624;9.786;2023-10-31T00:56:23;18.63;;;5.53;;
5391;SDS011;2719;53.624;9.786;2023-10-31T00:58:51;11.33;;;3.57;;
5391;SDS011;2719;53.624;9.786;2023-10-31T01:01:18;8.60;;;3.80;;
5391;SDS011;2719;53.624;9.786;2023-10-31T01:03:44;11.20;;;3.80;;
5391;SDS011;2719;53.624;9.786;2023-10-31T01:06:11;8.93;;;3.40;;
5391;SDS011;2719;53.624;9.786;2023-10-31T01:08:38;6.77;;;3.60;;
5391;SDS011;2719;53.624;9.786;2023-10-31T01:11:04;7.27;;;4.30;;
5391;SDS011;2719;53.624;9.786;2023-10-31T01:13:31;5.33;;;3.10;;
5391;SDS011;2719;53.624;9.786;2023-10-31T01:15:59;10.77;;;3.00;;
5391;SDS011;2719;53.624;9.786;2023-10-31T01:18:26;6.73;;;3.60;;
5391;SDS011;2719;53.624;9.786;2023-10-31T01:20:52;10.53;;;3.20;;
5391;SDS011;2719;53.624;9.786;2023-10-31T01:23:19;6.37;;;3.00;;
5391;SDS011;2719;53.624;9.786;2023-10-31T01:25:46;7.00;;;4.83;;
5391;SDS011;2719;53.624;9.786;2023-10-31T01:28:12;6.93;;;3.50;;
5391;SDS011;2719;53.624;9.786;2023-10-31T01:30:39;5.33;;;2.80;;
5391;SDS011;2719;53.624;9.786;2023-10-31T01:33:07;7.13;;;3.70;;
5391;SDS011;2719;53.624;9.786;2023-10-31T01:35:33;5.37;;;2.93;;
5391;SDS011;2719;53.624;9.786;2023-10-31T01:38:00;5.57;;;3.80;;
5391;SDS011;2719;53.624;9.786;2023-10-31T01:40:27;9.33;;;3.53;;
5391;SDS011;2719;53.624;9.786;2023-10-31T01:42:54;8.57;;;3.90;;
5391;SDS011;2719;53.624;9.786;2023-10-31T01:45:21;8.30;;;3.30;;
5391;SDS011;2719;53.624;9.786;2023-10-31T01:47:47;5.23;;;3.00;;
5391;SDS011;2719;53.624;9.786;2023-10-31T01:50:16;5.20;;;3.40;;
5391;SDS011;2719;53.624;9.786;2023-10-31T01:52:44;6.00;;;4.13;;
5391;SDS011;2719;53.624;9.786;2023-10-31T01:55:11;5.10;;;3.23;;
5391;SDS011;2719;53.624;9.786;2023-10-31T01:57:38;7.33;;;3.60;;
5391;SDS011;2719;53.624;9.786;2023-10-31T02:00:04;6.57;;;3.80;;
5391;SDS011;2719;53.624;9.786;2023-10-31T02:02:32;7.33;;;3.17;;
5391;SDS011;2719;53.624;9.786;2023-10-31T02:05:00;17.37;;;3.80;;
5391;SDS011;2719;53.624;9.786;2023-10-31T02:07:28;6.97;;;3.90;;
5391;SDS011;2719;53.624;9.786;2023-10-31T02:09:54;8.23;;;3.67;;
5391;SDS011;2719;53.624;9.786;2023-10-31T02:12:30;6.20;;;3.00;;
5391;SDS011;2719;53.624;9.786;2023-10-31T02:14:58;12.33;;;3.60;;
5391;SDS011;2719;53.624;9.786;2023-10-31T02:17:25;6.27;;;3.40;;
5391;SDS011;2719;53.624;9.786;2023-10-31T02:19:52;6.03;;;2.80;;
5391;SDS011;2719;53.624;9.786;2023-10-31T02:22:20;4.30;;;2.80;;
5391;SDS011;2719;53.624;9.786;2023-10-31T02:24:46;7.60;;;3.37;;
5391;SDS011;2719;53.624;9.786;2023-10-31T02:27:13;5.47;;;2.83;;
5391;SDS011;2719;53.624;9.786;2023-10-31T02:29:39;6.40;;;3.70;;
5391;SDS011;2719;53.624;9.786;2023-10-31T02:32:06;4.87;;;3.20;;
5391;SDS011;2719;53.624;9.786;2023-10-31T02:34:33;6.67;;;3.17;;
5391;SDS011;2719;53.624;9.786;2023-10-31T02:36:59;4.63;;;3.17;;
5391;SDS011;2719;53.624;9.786;2023-10-31T02:39:27;7.17;;;3.40;;
5391;SDS011;2719;53.624;9.786;2023-10-31T02:41:54;6.20;;;2.57;;
5391;SDS011;2719;53.624;9.786;2023-10-31T02:44:21;6.20;;;2.60;;
5391;SDS011;2719;53.624;9.786;2023-10-31T02:46:47;3.23;;;2.00;;
5391;SDS011;2719;53.624;9.786;2023-10-31T02:49:14;6.07;;;2.80;;
5391;SDS011;2719;53.624;9.786;2023-10-31T02:51:40;5.57;;;2.87;;
5391;SDS011;2719;53.624;9.786;2023-10-31T02:54:07;3.30;;;2.33;;
5391;SDS011;2719;53.624;9.786;2023-10-31T02:56:35;8.17;;;2.70;;
5391;SDS011;2719;53.624;9.786;2023-10-31T02:59:02;4.50;;;1.60;;
5391;SDS011;2719;53.624;9.786;2023-10-31T03:01:29;3.30;;;2.00;;
5391;SDS011;2719;53.624;9.786;2023-10-31T03:03:55;6.60;;;1.47;;
5391;SDS011;2719;53.624;9.786;2023-10-31T03:06:22;4.87;;;1.63;;
5391;SDS011;2719;53.624;9.786;2023-10-31T03:08:49;4.53;;;1.20;;
5391;SDS011;2719;53.624;9.786;2023-10-31T03:11:21;2.10;;;1.23;;
5391;SDS011;2719;53.624;9.786;2023-10-31T03:13:50;3.30;;;1.50;;
5391;SDS011;2719;53.624;9.786;2023-10-31T03:16:17;2.47;;;1.30;;
5391;SDS011;2719;53.624;9.786;2023-10-31T03:18:44;3.83;;;1.80;;
5391;SDS011;2719;53.624;9.786;2023-10-31T03:21:11;2.80;;;1.17;;
5391;SDS011;2719;53.624;9.786;2023-10-31T03:23:38;4.37;;;1.43;;
5391;SDS011;2719;53.624;9.786;2023-10-31T03:26:05;2.17;;;0.93;;
5391;SDS011;2719;53.624;9.786;2023-10-31T03:28:31;3.33;;;1.03;;
5391;SDS011;2719;53.624;9.786;2023-10-31T03:30:59;2.83;;;1.13;;
5391;SDS011;2719;53.624;9.786;2023-10-31T03:33:26;2.10;;;0.93;;
5391;SDS011;2719;53.624;9.786;2023-10-31T03:35:52;2.87;;;0.83;;
5391;SDS011;2719;53.624;9.786;2023-10-31T03:38:19;1.80;;;0.87;;
5391;SDS011;2719;53.624;9.786;2023-10-31T03:40:46;2.03;;;0.90;;
5391;SDS011;2719;53.624;9.786;2023-10-31T03:43:12;2.17;;;1.20;;
5391;SDS011;2719;53.624;9.786;2023-10-31T03:45:39;3.30;;;1.50;;
5391;SDS011;2719;53.624;9.786;2023-10-31T03:48:07;1.80;;;1.03;;
5391;SDS011;2719;53.624;9.786;2023-10-31T03:50:34;6.30;;;1.23;;
5391;SDS011;2719;53.624;9.786;2023-10-31T03:53:01;8.83;;;1.50;;
5391;SDS011;2719;53.624;9.786;2023-10-31T03:55:27;5.40;;;1.37;;
5391;SDS011;2719;53.624;9.786;2023-10-31T03:57:55;3.50;;;1.37;;
5391;SDS011;2719;53.624;9.786;2023-10-31T04:00:21;2.07;;;0.97;;
5391;SDS011;2719;53.624;9.786;2023-10-31T04:02:48;6.20;;;1.50;;
5391;SDS011;2719;53.624;9.786;2023-10-31T04:05:16;3.20;;;1.30;;
5391;SDS011;2719;53.624;9.786;2023-10-31T04:07:43;9.70;;;1.90;;
5391;SDS011;2719;53.624;9.786;2023-10-31T04:10:10;2.97;;;1.37;;
5391;SDS011;2719;53.624;9.786;2023-10-31T04:12:38;3.10;;;1.70;;
5391;SDS011;2719;53.624;9.786;2023-10-31T04:15:05;1.60;;;0.90;;
5391;SDS011;2719;53.624;9.786;2023-10-31T04:17:33;4.57;;;1.27;;
5391;SDS011;2719;53.624;9.786;2023-10-31T04:20:00;2.50;;;1.60;;
5391;SDS011;2719;53.624;9.786;2023-10-31T04:22:28;2.53;;;1.30;;
5391;SDS011;2719;53.624;9.786;2023-10-31T04:24:55;2.83;;;1.47;;
5391;SDS011;2719;53.624;9.786;2023-10-31T04:27:21;3.83;;;1.27;;
5391;SDS011;2719;53.624;9.786;2023-10-31T04:29:48;2.10;;;1.33;;
5391;SDS011;2719;53.624;9.786;2023-10-31T04:32:15;2.53;;;1.43;;
5391;SDS011;2719;53.624;9.786;2023-10-31T04:34:41;5.13;;;1.83;;
5391;SDS011;2719;53.624;9.786;2023-10-31T04:37:09;3.47;;;2.00;;
5391;SDS011;2719;53.624;9.786;2023-10-31T04:39:37;2.40;;;1.47;;
5391;SDS011;2719;53.624;9.786;2023-10-31T04:42:03;3.00;;;1.73;;
5391;SDS011;2719;53.624;9.786;2023-10-31T04:44:30;3.60;;;1.53;;
5391;SDS011;2719;53.624;9.786;2023-10-31T04:46:57;2.90;;;1.83;;
5391;SDS011;2719;53.624;9.786;2023-10-31T04:49:24;3.50;;;2.67;;
5391;SDS011;2719;53.624;9.786;2023-10-31T04:51:50;7.20;;;2.17;;
5391;SDS011;2719;53.624;9.786;2023-10-31T04:54:17;3.40;;;2.20;;
5391;SDS011;2719;53.624;9.786;2023-10-31T04:56:45;3.00;;;1.77;;
5391;SDS011;2719;53.624;9.786;2023-10-31T04:59:13;4.70;;;2.93;;
5391;SDS011;2719;53.624;9.786;2023-10-31T05:01:40;4.47;;;2.67;;
5391;SDS011;2719;53.624;9.786;2023-10-31T05:04:07;6.67;;;2.83;;
5391;SDS011;2719;53.624;9.786;2023-10-31T05:06:33;4.53;;;2.63;;
5391;SDS011;2719;53.624;9.786;2023-10-31T05:08:59;4.90;;;3.70;;
5391;SDS011;2719;53.624;9.786;2023-10-31T05:11:25;11.73;;;2.37;;
5391;SDS011;2719;53.624;9.786;2023-10-31T05:13:53;5.37;;;3.23;;
5391;SDS011;2719;53.624;9.786;2023-10-31T05:16:20;5.30;;;2.67;;
5391;SDS011;2719;53.624;9.786;2023-10-31T05:18:47;7.27;;;3.80;;
5391;SDS011;2719;53.624;9.786;2023-10-31T05:21:18;7.70;;;3.27;;
5391;SDS011;2719;53.624;9.786;2023-10-31T05:23:45;7.27;;;3.87;;
5391;SDS011;2719;53.624;9.786;2023-10-31T05:26:12;32.27;;;3.77;;
5391;SDS011;2719;53.624;9.786;2023-10-31T05:28:38;6.17;;;3.67;;
5391;SDS011;2719;53.624;9.786;2023-10-31T05:31:06;7.83;;;2.67;;
5391;SDS011;2719;53.624;9.786;2023-10-31T05:33:33;5.37;;;3.10;;
5391;SDS011;2719;53.624;9.786;2023-10-31T05:36:00;4.63;;;3.17;;
5391;SDS011;2719;53.624;9.786;2023-10-31T05:38:27;4.80;;;3.30;;
5391;SDS011;2719;53.624;9.786;2023-10-31T05:40:54;4.47;;;3.17;;
5391;SDS011;2719;53.624;9.786;2023-10-31T05:43:20;5.00;;;3.60;;
5391;SDS011;2719;53.624;9.786;2023-10-31T05:45:47;5.80;;;3.87;;
5391;SDS011;2719;53.624;9.786;2023-10-31T05:48:15;6.80;;;3.90;;
5391;SDS011;2719;53.624;9.786;2023-10-31T05:50:41;6.00;;;3.83;;
5391;SDS011;2719;53.624;9.786;2023-10-31T05:53:08;6.47;;;4.07;;
5391;SDS011;2719;53.624;9.786;2023-10-31T05:55:38;7.97;;;4.47;;
5391;SDS011;2719;53.624;9.786;2023-10-31T05:58:04;6.63;;;4.63;;
5391;SDS011;2719;53.624;9.786;2023-10-31T06:00:31;6.57;;;4.63;;
5391;SDS011;2719;53.624;9.786;2023-10-31T06:02:57;6.57;;;4.57;;
5391;SDS011;2719;53.624;9.786;2023-10-31T06:05:25;7.77;;;4.90;;
5391;SDS011;2719;53.624;9.786;2023-10-31T06:07:52;7.50;;;4.90;;
5391;SDS011;2719;53.624;9.786;2023-10-31T06:10:19;6.73;;;4.73;;
5391;SDS011;2719;53.624;9.786;2023-10-31T06:12:46;7.60;;;5.27;;
5391;SDS011;2719;53.624;9.786;2023-10-31T06:15:13;11.20;;;4.30;;
5391;SDS011;2719;53.624;9.786;2023-10-31T06:17:40;7.77;;;5.03;;
5391;SDS011;2719;53.624;9.786;2023-10-31T06:20:07;6.03;;;2.93;;
5391;SDS011;2719;53.624;9.786;2023-10-31T06:22:36;5.30;;;3.57;;
5391;SDS011;2719;53.624;9.786;2023-10-31T06:25:02;8.70;;;5.80;;
5391;SDS011;2719;53.624;9.786;2023-10-31T06:27:29;6.50;;;4.57;;
5391;SDS011;2719;53.624;9.786;2023-10-31T06:29:56;7.97;;;5.07;;
5391;SDS011;2719;53.624;9.786;2023-10-31T06:32:23;8.90;;;5.80;;
5391;SDS011;2719;53.624;9.786;2023-10-31T06:34:49;8.80;;;5.50;;
5391;SDS011;2719;53.624;9.786;2023-10-31T06:37:16;9.10;;;6.27;;
5391;SDS011;2719;53.624;9.786;2023-10-31T06:39:44;10.03;;;6.80;;
5391;SDS011;2719;53.624;9.786;2023-10-31T06:42:10;10.03;;;5.57;;
5391;SDS011;2719;53.624;9.786;2023-10-31T06:44:37;10.37;;;6.53;;
5391;SDS011;2719;53.624;9.786;2023-10-31T06:47:04;9.23;;;5.90;;
5391;SDS011;2719;53.624;9.786;2023-10-31T06:49:31;9.10;;;5.90;;
5391;SDS011;2719;53.624;9.786;2023-10-31T06:51:57;8.90;;;6.07;;
5391;SDS011;2719;53.624;9.786;2023-10-31T06:54:24;8.97;;;6.10;;
5391;SDS011;2719;53.624;9.786;2023-10-31T06:56:52;10.40;;;6.17;;
5391;SDS011;2719;53.624;9.786;2023-10-31T06:59:18;8.73;;;5.10;;
5391;SDS011;2719;53.624;9.786;2023-10-31T07:01:45;9.67;;;6.20;;
5391;SDS011;2719;53.624;9.786;2023-10-31T07:04:12;10.30;;;6.33;;
5391;SDS011;2719;53.624;9.786;2023-10-31T07:06:39;11.97;;;5.90;;
5391;SDS011;2719;53.624;9.786;2023-10-31T07:09:05;9.27;;;5.50;;
5391;SDS011;2719;53.624;9.786;2023-10-31T07:11:32;7.67;;;4.77;;
5391;SDS011;2719;53.624;9.786;2023-10-31T07:14:01;7.83;;;3.40;;
5391;SDS011;2719;53.624;9.786;2023-10-31T07:16:28;6.93;;;3.77;;
5391;SDS011;2719;53.624;9.786;2023-10-31T07:18:55;5.53;;;3.73;;
5391;SDS011;2719;53.624;9.786;2023-10-31T07:21:22;5.97;;;3.70;;
5391;SDS011;2719;53.624;9.786;2023-10-31T07:23:48;5.50;;;4.00;;
5391;SDS011;2719;53.624;9.786;2023-10-31T07:26:15;5.33;;;2.37;;
5391;SDS011;2719;53.624;9.786;2023-10-31T07:28:42;5.00;;;2.10;;
5391;SDS011;2719;53.624;9.786;2023-10-31T07:31:10;4.47;;;2.20;;
5391;SDS011;2719;53.624;9.786;2023-10-31T07:33:36;3.60;;;1.93;;
5391;SDS011;2719;53.624;9.786;2023-10-31T07:36:03;3.70;;;2.00;;
5391;SDS011;2719;53.624;9.786;2023-10-31T07:38:30;3.27;;;1.97;;
5391;SDS011;2719;53.624;9.786;2023-10-31T07:40:58;2.77;;;1.97;;
5391;SDS011;2719;53.624;9.786;2023-10-31T07:43:25;7.40;;;3.20;;
5391;SDS011;2719;53.624;9.786;2023-10-31T07:45:51;7.30;;;4.30;;
5391;SDS011;2719;53.624;9.786;2023-10-31T07:48:19;6.40;;;4.80;;
5391;SDS011;2719;53.624;9.786;2023-10-31T07:50:46;6.07;;;4.73;;
5391;SDS011;2719;53.624;9.786;2023-10-31T07:53:13;5.23;;;3.20;;
5391;SDS011;2719;53.624;9.786;2023-10-31T07:55:39;6.07;;;3.07;;
5391;SDS011;2719;53.624;9.786;2023-10-31T07:58:06;6.37;;;3.00;;
5391;SDS011;2719;53.624;9.786;2023-10-31T08:00:34;1.37;;;1.00;;
5391;SDS011;2719;53.624;9.786;2023-10-31T08:03:01;1.70;;;0.80;;
5391;SDS011;2719;53.624;9.786;2023-10-31T08:05:29;0.90;;;0.50;;
5391;SDS011;2719;53.624;9.786;2023-10-31T08:07:55;3.10;;;0.50;;
5391;SDS011;2719;53.624;9.786;2023-10-31T08:10:22;1.07;;;0.50;;
5391;SDS011;2719;53.624;9.786;2023-10-31T08:12:48;3.50;;;0.50;;
5391;SDS011;2719;53.624;9.786;2023-10-31T08:15:15;0.80;;;0.40;;
5391;SDS011;2719;53.624;9.786;2023-10-31T08:17:42;0.90;;;0.40;;
5391;SDS011;2719;53.624;9.786;2023-10-31T08:20:09;0.87;;;0.40;;
5391;SDS011;2719;53.624;9.786;2023-10-31T08:22:39;3.07;;;0.47;;
5391;SDS011;2719;53.624;9.786;2023-10-31T08:25:07;1.10;;;0.40;;
5391;SDS011;2719;53.624;9.786;2023-10-31T08:27:34;5.43;;;0.50;;
5391;SDS011;2719;53.624;9.786;2023-10-31T08:30:01;0.80;;;0.40;;
5391;SDS011;2719;53.624;9.786;2023-10-31T08:32:28;1.07;;;0.40;;
5391;SDS011;2719;53.624;9.786;2023-10-31T08:34:55;0.80;;;0.30;;
5391;SDS011;2719;53.624;9.786;2023-10-31T08:37:22;0.90;;;0.40;;
5391;SDS011;2719;53.624;9.786;2023-10-31T08:39:50;0.90;;;0.40;;
5391;SDS011;2719;53.624;9.786;2023-10-31T08:42:17;0.90;;;0.30;;
5391;SDS011;2719;53.624;9.786;2023-10-31T08:44:44;1.73;;;0.40;;
5391;SDS011;2719;53.624;9.786;2023-10-31T08:47:10;1.60;;;0.40;;
5391;SDS011;2719;53.624;9.786;2023-10-31T08:49:37;1.00;;;0.30;;
5391;SDS011;2719;53.624;9.786;2023-10-31T08:52:04;1.20;;;0.40;;
5391;SDS011;2719;53.624;9.786;2023-10-31T08:54:31;0.80;;;0.30;;
5391;SDS011;2719;53.624;9.786;2023-10-31T08:56:59;2.10;;;0.40;;
5391;SDS011;2719;53.624;9.786;2023-10-31T08:59:25;2.23;;;0.50;;
5391;SDS011;2719;53.624;9.786;2023-10-31T09:01:52;0.97;;;0.37;;
5391;SDS011;2719;53.624;9.786;2023-10-31T09:04:19;0.90;;;0.40;;
5391;SDS011;2719;53.624;9.786;2023-10-31T09:06:45;0.80;;;0.30;;
5391;SDS011;2719;53.624;9.786;2023-10-31T09:09:12;0.80;;;0.40;;
5391;SDS011;2719;53.624;9.786;2023-10-31T09:11:40;0.80;;;0.30;;
5391;SDS011;2719;53.624;9.786;2023-10-31T09:14:08;1.20;;;0.40;;
5391;SDS011;2719;53.624;9.786;2023-10-31T09:16:34;1.87;;;0.40;;
5391;SDS011;2719;53.624;9.786;2023-10-31T09:19:01;2.80;;;0.50;;
5391;SDS011;2719;53.624;9.786;2023-10-31T09:21:28;1.83;;;0.50;;
5391;SDS011;2719;53.624;9.786;2023-10-31T09:23:55;0.90;;;0.30;;
5391;SDS011;2719;53.624;9.786;2023-10-31T09:26:21;0.90;;;0.30;;
5391;SDS011;2719;53.624;9.786;2023-10-31T09:28:48;0.80;;;0.40;;
5391;SDS011;2719;53.624;9.786;2023-10-31T09:31:17;0.93;;;0.43;;
5391;SDS011;2719;53.624;9.786;2023-10-31T09:33:44;0.90;;;0.40;;
5391;SDS011;2719;53.624;9.786;2023-10-31T09:36:10;1.43;;;0.40;;
5391;SDS011;2719;53.624;9.786;2023-10-31T09:38:38;1.07;;;0.40;;
5391;SDS011;2719;53.624;9.786;2023-10-31T09:41:06;2.40;;;0.40;;
5391;SDS011;2719;53.624;9.786;2023-10-31T09:43:33;1.17;;;0.40;;
5391;SDS011;2719;53.624;9.786;2023-10-31T09:45:59;0.90;;;0.40;;
5391;SDS011;2719;53.624;9.786;2023-10-31T09:48:28;1.50;;;0.40;;
5391;SDS011;2719;53.624;9.786;2023-10-31T09:50:55;1.30;;;0.40;;
5391;SDS011;2719;53.624;9.786;2023-10-31T09:53:22;1.30;;;0.40;;
5391;SDS011;2719;53.624;9.786;2023-10-31T09:55:50;0.90;;;0.33;;
5391;SDS011;2719;53.624;9.786;2023-10-31T09:58:18;1.10;;;0.40;;
5391;SDS011;2719;53.624;9.786;2023-10-31T10:00:45;2.40;;;0.40;;
5391;SDS011;2719;53.624;9.786;2023-10-31T10:03:12;1.93;;;0.30;;
5391;SDS011;2719;53.624;9.786;2023-10-31T10:05:40;1.20;;;0.33;;
5391;SDS011;2719;53.624;9.786;2023-10-31T10:08:10;5.13;;;0.50;;
5391;SDS011;2719;53.624;9.786;2023-10-31T10:10:37;1.97;;;0.70;;
5391;SDS011;2719;53.624;9.786;2023-10-31T10:13:03;2.40;;;0.40;;
5391;SDS011;2719;53.624;9.786;2023-10-31T10:15:30;1.90;;;0.50;;
5391;SDS011;2719;53.624;9.786;2023-10-31T10:18:08;2.70;;;0.57;;
5391;SDS011;2719;53.624;9.786;2023-10-31T10:20:35;3.93;;;0.50;;
5391;SDS011;2719;53.624;9.786;2023-10-31T10:23:03;1.77;;;0.43;;
5391;SDS011;2719;53.624;9.786;2023-10-31T10:25:30;1.00;;;0.40;;
5391;SDS011;2719;53.624;9.786;2023-10-31T10:27:57;2.07;;;0.60;;
5391;SDS011;2719;53.624;9.786;2023-10-31T10:30:23;1.10;;;0.40;;
5391;SDS011;2719;53.624;9.786;2023-10-31T10:32:51;1.77;;;0.60;;
5391;SDS011;2719;53.624;9.786;2023-10-31T10:35:18;2.50;;;0.50;;
5391;SDS011;2719;53.624;9.786;2023-10-31T10:37:45;1.40;;;0.40;;
5391;SDS011;2719;53.624;9.786;2023-10-31T10:40:15;4.10;;;0.60;;
5391;SDS011;2719;53.624;9.786;2023-10-31T10:42:44;4.27;;;0.50;;
5391;SDS011;2719;53.624;9.786;2023-10-31T10:45:13;2.60;;;0.50;;
5391;SDS011;2719;53.624;9.786;2023-10-31T10:47:40;4.53;;;0.47;;
5391;SDS011;2719;53.624;9.786;2023-10-31T10:50:12;1.30;;;0.57;;
5391;SDS011;2719;53.624;9.786;2023-10-31T10:52:41;0.80;;;0.40;;
5391;SDS011;2719;53.624;9.786;2023-10-31T10:55:12;1.43;;;0.60;;
5391;SDS011;2719;53.624;9.786;2023-10-31T10:57:45;1.20;;;0.50;;
5391;SDS011;2719;53.624;9.786;2023-10-31T11:00:16;1.07;;;0.40;;
5391;SDS011;2719;53.624;9.786;2023-10-31T11:02:45;2.23;;;0.50;;
5391;SDS011;2719;53.624;9.786;2023-10-31T11:05:13;1.33;;;0.50;;
5391;SDS011;2719;53.624;9.786;2023-10-31T11:07:40;2.13;;;0.70;;
5391;SDS011;2719;53.624;9.786;2023-10-31T11:10:08;1.80;;;0.43;;
5391;SDS011;2719;53.624;9.786;2023-10-31T11:12:35;2.67;;;0.60;;
5391;SDS011;2719;53.624;9.786;2023-10-31T11:15:05;5.87;;;0.53;;
5391;SDS011;2719;53.624;9.786;2023-10-31T11:17:33;3.63;;;0.50;;
5391;SDS011;2719;53.624;9.786;2023-10-31T11:20:02;1.00;;;0.50;;
5391;SDS011;2719;53.624;9.786;2023-10-31T11:22:36;1.10;;;0.43;;
5391;SDS011;2719;53.624;9.786;2023-10-31T11:25:05;2.33;;;0.70;;
5391;SDS011;2719;53.624;9.786;2023-10-31T11:27:33;4.30;;;0.60;;
5391;SDS011;2719;53.624;9.786;2023-10-31T11:30:00;5.07;;;0.50;;
5391;SDS011;2719;53.624;9.786;2023-10-31T11:32:31;2.30;;;0.60;;
5391;SDS011;2719;53.624;9.786;2023-10-31T11:34:58;2.07;;;0.40;;
5391;SDS011;2719;53.624;9.786;2023-10-31T11:37:27;4.10;;;0.60;;
5391;SDS011;2719;53.624;9.786;2023-10-31T11:40:14;2.23;;;0.50;;
5391;SDS011;2719;53.624;9.786;2023-10-31T11:42:47;1.13;;;0.40;;
5391;SDS011;2719;53.624;9.786;2023-10-31T11:45:24;4.80;;;0.40;;
5391;SDS011;2719;53.624;9.786;2023-10-31T11:47:53;1.00;;;0.30;;
5391;SDS011;2719;53.624;9.786;2023-10-31T11:50:21;1.53;;;0.57;;
5391;SDS011;2719;53.624;9.786;2023-10-31T11:52:58;1.30;;;0.37;;
5391;SDS011;2719;53.624;9.786;2023-10-31T11:55:25;1.10;;;0.30;;
5391;SDS011;2719;53.624;9.786;2023-10-31T11:57:52;2.90;;;0.40;;
5391;SDS011;2719;53.624;9.786;2023-10-31T12:00:23;1.67;;;0.30;;
5391;SDS011;2719;53.624;9.786;2023-10-31T12:03:00;1.63;;;0.30;;
5391;SDS011;2719;53.624;9.786;2023-10-31T12:05:28;1.13;;;0.30;;
5391;SDS011;2719;53.624;9.786;2023-10-31T12:07:55;1.73;;;0.40;;
5391;SDS011;2719;53.624;9.786;2023-10-31T12:10:22;0.80;;;0.30;;
5391;SDS011;2719;53.624;9.786;2023-10-31T12:12:50;1.10;;;0.30;;
5391;SDS011;2719;53.624;9.786;2023-10-31T12:15:16;1.07;;;0.30;;
5391;SDS011;2719;53.624;9.786;2023-10-31T12:17:43;1.27;;;0.30;;
5391;SDS011;2719;53.624;9.786;2023-10-31T12:20:11;1.90;;;0.40;;
5391;SDS011;2719;53.624;9.786;2023-10-31T12:22:38;1.87;;;0.43;;
5391;SDS011;2719;53.624;9.786;2023-10-31T12:25:06;0.90;;;0.30;;
5391;SDS011;2719;53.624;9.786;2023-10-31T12:27:43;1.67;;;0.30;;
5391;SDS011;2719;53.624;9.786;2023-10-31T12:30:11;1.63;;;0.40;;
5391;SDS011;2719;53.624;9.786;2023-10-31T12:32:39;4.13;;;0.30;;
5391;SDS011;2719;53.624;9.786;2023-10-31T12:35:07;0.90;;;0.37;;
5391;SDS011;2719;53.624;9.786;2023-10-31T12:37:41;0.80;;;0.30;;
5391;SDS011;2719;53.624;9.786;2023-10-31T12:40:11;1.67;;;0.40;;
5391;SDS011;2719;53.624;9.786;2023-10-31T12:42:38;1.10;;;0.40;;
5391;SDS011;2719;53.624;9.786;2023-10-31T12:45:06;0.80;;;0.30;;
5391;SDS011;2719;53.624;9.786;2023-10-31T12:47:33;1.00;;;0.30;;
5391;SDS011;2719;53.624;9.786;2023-10-31T12:50:05;2.03;;;0.40;;
5391;SDS011;2719;53.624;9.786;2023-10-31T12:52:46;0.90;;;0.30;;
5391;SDS011;2719;53.624;9.786;2023-10-31T12:55:14;0.90;;;0.30;;
5391;SDS011;2719;53.624;9.786;2023-10-31T12:57:41;2.93;;;0.40;;
5391;SDS011;2719;53.624;9.786;2023-10-31T13:00:09;0.80;;;0.40;;
5391;SDS011;2719;53.624;9.786;2023-10-31T13:02:37;3.50;;;0.47;;
5391;SDS011;2719;53.624;9.786;2023-10-31T13:05:08;1.43;;;0.30;;
5391;SDS011;2719;53.624;9.786;2023-10-31T13:07:35;3.80;;;0.50;;
5391;SDS011;2719;53.624;9.786;2023-10-31T13:10:03;1.30;;;0.50;;
5391;SDS011;2719;53.624;9.786;2023-10-31T13:12:30;1.00;;;0.33;;
5391;SDS011;2719;53.624;9.786;2023-10-31T13:14:58;0.83;;;0.40;;
5391;SDS011;2719;53.624;9.786;2023-10-31T13:17:26;1.10;;;0.60;;
5391;SDS011;2719;53.624;9.786;2023-10-31T13:19:52;1.10;;;0.50;;
5391;SDS011;2719;53.624;9.786;2023-10-31T13:22:19;2.50;;;0.87;;
5391;SDS011;2719;53.624;9.786;2023-10-31T13:24:45;1.17;;;0.50;;
5391;SDS011;2719;53.624;9.786;2023-10-31T13:27:13;1.07;;;0.40;;
5391;SDS011;2719;53.624;9.786;2023-10-31T13:29:41;3.53;;;0.50;;
5391;SDS011;2719;53.624;9.786;2023-10-31T13:32:08;1.00;;;0.40;;
5391;SDS011;2719;53.624;9.786;2023-10-31T13:34:35;2.03;;;0.43;;
5391;SDS011;2719;53.624;9.786;2023-10-31T13:37:01;1.00;;;0.40;;
5391;SDS011;2719;53.624;9.786;2023-10-31T13:39:28;1.00;;;0.30;;
5391;SDS011;2719;53.624;9.786;2023-10-31T13:41:55;5.23;;;0.40;;
5391;SDS011;2719;53.624;9.786;2023-10-31T13:44:23;1.20;;;0.40;;
5391;SDS011;2719;53.624;9.786;2023-10-31T13:46:49;3.80;;;0.43;;
5391;SDS011;2719;53.624;9.786;2023-10-31T13:49:16;1.40;;;0.40;;
5391;SDS011;2719;53.624;9.786;2023-10-31T13:51:43;1.93;;;0.40;;
5391;SDS011;2719;53.624;9.786;2023-10-31T13:54:09;1.27;;;0.40;;
5391;SDS011;2719;53.624;9.786;2023-10-31T13:56:36;1.30;;;0.40;;
5391;SDS011;2719;53.624;9.786;2023-10-31T13:59:03;1.43;;;0.40;;
5391;SDS011;2719;53.624;9.786;2023-10-31T14:01:30;1.10;;;0.40;;
5391;SDS011;2719;53.624;9.786;2023-10-31T14:03:57;1.13;;;0.40;;
5391;SDS011;2719;53.624;9.786;2023-10-31T14:06:24;1.67;;;0.40;;
5391;SDS011;2719;53.624;9.786;2023-10-31T14:08:54;1.10;;;0.40;;
5391;SDS011;2719;53.624;9.786;2023-10-31T14:11:21;0.90;;;0.30;;
5391;SDS011;2719;53.624;9.786;2023-10-31T14:13:48;1.00;;;0.37;;
5391;SDS011;2719;53.624;9.786;2023-10-31T14:16:15;1.00;;;0.40;;
5391;SDS011;2719;53.624;9.786;2023-10-31T14:18:43;1.03;;;0.40;;
5391;SDS011;2719;53.624;9.786;2023-10-31T14:21:11;0.90;;;0.30;;
5391;SDS011;2719;53.624;9.786;2023-10-31T14:23:38;1.40;;;0.50;;
5391;SDS011;2719;53.624;9.786;2023-10-31T14:26:04;2.70;;;0.43;;
5391;SDS011;2719;53.624;9.786;2023-10-31T14:28:31;2.03;;;0.47;;
5391;SDS011;2719;53.624;9.786;2023-10-31T14:30:58;1.73;;;0.40;;
5391;SDS011;2719;53.624;9.786;2023-10-31T14:33:24;1.00;;;0.30;;
5391;SDS011;2719;53.624;9.786;2023-10-31T14:35:52;1.63;;;0.40;;
5391;SDS011;2719;53.624;9.786;2023-10-31T14:38:19;1.20;;;0.50;;
5391;SDS011;2719;53.624;9.786;2023-10-31T14:40:45;3.00;;;0.50;;
5391;SDS011;2719;53.624;9.786;2023-10-31T14:43:12;2.70;;;0.60;;
5391;SDS011;2719;53.624;9.786;2023-10-31T14:45:43;3.47;;;0.60;;
5391;SDS011;2719;53.624;9.786;2023-10-31T14:48:10;8.30;;;0.80;;
5391;SDS011;2719;53.624;9.786;2023-10-31T14:50:36;3.53;;;0.80;;
5391;SDS011;2719;53.624;9.786;2023-10-31T14:53:05;3.00;;;0.50;;
5391;SDS011;2719;53.624;9.786;2023-10-31T14:55:32;2.63;;;0.60;;
5391;SDS011;2719;53.624;9.786;2023-10-31T14:57:58;2.50;;;0.50;;
5391;SDS011;2719;53.624;9.786;2023-10-31T15:00:25;4.17;;;0.60;;
5391;SDS011;2719;53.624;9.786;2023-10-31T15:02:51;3.40;;;0.60;;
5391;SDS011;2719;53.624;9.786;2023-10-31T15:05:18;1.77;;;0.50;;
5391;SDS011;2719;53.624;9.786;2023-10-31T15:07:45;6.00;;;0.60;;
5391;SDS011;2719;53.624;9.786;2023-10-31T15:10:13;1.57;;;0.40;;
5391;SDS011;2719;53.624;9.786;2023-10-31T15:12:39;3.13;;;0.50;;
5391;SDS011;2719;53.624;9.786;2023-10-31T15:15:06;1.37;;;0.47;;